createdAt,value
2023-04-06T00:01:09.828Z,28.70
2023-04-06T00:03:37.403Z,26.60
2023-04-06T00:06:05.180Z,33.07
2023-04-06T00:08:32.115Z,29.07
2023-04-06T00:10:59.102Z,26.90
2023-04-06T00:13:26.386Z,24.37
2023-04-06T00:15:53.433Z,30.40
2023-04-06T00:18:20.770Z,33.63
2023-04-06T00:20:47.887Z,32.40
2023-04-06T00:23:14.892Z,35.20
2023-04-06T00:25:42.068Z,29.63
2023-04-06T00:28:09.152Z,32.90
2023-04-06T00:30:36.244Z,29.17
2023-04-06T00:33:03.343Z,33.90
2023-04-06T00:35:30.492Z,31.33
2023-04-06T00:37:57.575Z,30.20
2023-04-06T00:40:24.964Z,33.47
2023-04-06T00:42:51.959Z,32.20
2023-04-06T00:45:19.111Z,32.70
2023-04-06T00:47:46.266Z,35.57
2023-04-06T00:50:13.327Z,36.27
2023-04-06T00:52:40.367Z,32.37
2023-04-06T00:55:07.868Z,37.60
2023-04-06T00:57:34.899Z,35.03
2023-04-06T01:00:01.936Z,32.83
2023-04-06T01:02:29.048Z,35.40
2023-04-06T01:04:56.311Z,37.27
2023-04-06T01:07:23.468Z,39.67
2023-04-06T01:09:50.531Z,39.67
2023-04-06T01:12:18.001Z,39.30
2023-04-06T01:14:45.042Z,35.97
2023-04-06T01:17:12.344Z,37.90
2023-04-06T01:19:41.232Z,35.17
2023-04-06T01:22:08.763Z,42.20
2023-04-06T01:24:35.774Z,36.13
2023-04-06T01:27:02.818Z,36.43
2023-04-06T01:29:29.799Z,37.43
2023-04-06T01:31:56.979Z,38.73
2023-04-06T01:34:24.004Z,38.30
2023-04-06T01:36:51.293Z,37.97
2023-04-06T01:39:18.550Z,34.67
2023-04-06T01:41:46.005Z,37.47
2023-04-06T01:44:12.977Z,34.83
2023-04-06T01:46:40.017Z,37.10
2023-04-06T01:49:07.315Z,35.63
2023-04-06T01:51:34.422Z,34.80
2023-04-06T01:54:01.426Z,34.20
2023-04-06T01:56:28.351Z,39.73
2023-04-06T01:58:56.129Z,38.20
2023-04-06T02:01:23.481Z,35.77
2023-04-06T02:03:50.589Z,36.87
2023-04-06T02:06:17.570Z,37.33
2023-04-06T02:08:44.621Z,39.33
2023-04-06T02:11:11.741Z,32.67
2023-04-06T02:13:38.696Z,36.97
2023-04-06T02:16:06.616Z,41.20
2023-04-06T02:18:33.709Z,32.27
2023-04-06T02:21:00.705Z,35.13
2023-04-06T02:23:27.757Z,37.90
2023-04-06T02:25:54.687Z,39.83
2023-04-06T02:28:21.590Z,37.27
2023-04-06T02:30:48.594Z,39.43
2023-04-06T02:33:15.731Z,37.60
2023-04-06T02:35:42.756Z,39.80
2023-04-06T02:38:09.729Z,45.03
2023-04-06T02:40:36.671Z,40.53
2023-04-06T02:43:03.741Z,39.53
2023-04-06T02:45:30.793Z,44.63
2023-04-06T02:47:57.767Z,45.50
2023-04-06T02:50:24.772Z,43.83
2023-04-06T02:52:53.401Z,43.67
2023-04-06T02:55:22.413Z,45.37
2023-04-06T02:57:49.597Z,44.20
2023-04-06T03:00:16.903Z,48.87
2023-04-06T03:02:44.143Z,47.43
2023-04-06T03:05:11.265Z,41.70
2023-04-06T03:07:38.252Z,43.33
2023-04-06T03:10:06.016Z,42.80
2023-04-06T03:12:32.952Z,44.47
2023-04-06T03:15:00.011Z,44.20
2023-04-06T03:17:26.968Z,47.90
2023-04-06T03:19:53.958Z,43.37
2023-04-06T03:22:21.834Z,39.50
2023-04-06T03:24:48.874Z,48.00
2023-04-06T03:27:15.972Z,44.93
2023-04-06T03:29:42.934Z,45.30
2023-04-06T03:32:11.365Z,41.87
2023-04-06T03:34:39.944Z,40.00
2023-04-06T03:37:10.313Z,47.67
2023-04-06T03:39:37.834Z,42.93
2023-04-06T03:42:05.030Z,41.93
2023-04-06T03:44:32.001Z,42.03
2023-04-06T03:46:59.057Z,40.40
2023-04-06T03:49:26.040Z,35.97
2023-04-06T03:51:54.574Z,42.57
2023-04-06T03:54:21.596Z,41.67
2023-04-06T03:56:48.595Z,42.27
2023-04-06T03:59:16.126Z,42.13
2023-04-06T04:01:43.393Z,38.30
2023-04-06T04:04:11.351Z,37.20
2023-04-06T04:06:38.347Z,38.63
2023-04-06T04:09:05.466Z,41.17
2023-04-06T04:11:32.384Z,39.67
2023-04-06T04:13:59.311Z,40.60
2023-04-06T04:16:26.458Z,35.67
2023-04-06T04:18:53.499Z,41.07
2023-04-06T04:21:20.841Z,36.33
2023-04-06T04:23:47.976Z,39.33
2023-04-06T04:26:14.921Z,38.77
2023-04-06T04:28:41.982Z,40.50
2023-04-06T04:31:09.350Z,37.00
2023-04-06T04:33:36.323Z,36.30
2023-04-06T04:36:03.756Z,40.80
2023-04-06T04:38:30.747Z,39.07
2023-04-06T04:40:57.718Z,33.80
2023-04-06T04:43:24.713Z,34.87
2023-04-06T04:45:51.760Z,35.57
2023-04-06T04:48:18.864Z,38.33
2023-04-06T04:50:45.988Z,39.10
2023-04-06T04:53:13.241Z,42.03
2023-04-06T04:55:40.232Z,37.37
2023-04-06T04:58:07.219Z,37.00
2023-04-06T05:00:34.243Z,36.43
2023-04-06T05:03:01.527Z,39.37
2023-04-06T05:05:28.839Z,34.13
2023-04-06T05:07:56.112Z,38.57
2023-04-06T05:10:23.215Z,36.90
2023-04-06T05:12:50.247Z,37.13
2023-04-06T05:15:17.336Z,40.27
2023-04-06T05:17:44.355Z,45.37
2023-04-06T05:20:11.985Z,38.53
2023-04-06T05:22:38.992Z,38.40
2023-04-06T05:25:06.626Z,35.67
2023-04-06T05:27:33.607Z,37.93
2023-04-06T05:30:00.596Z,39.60
2023-04-06T05:32:29.084Z,37.80
2023-04-06T05:34:57.075Z,35.30
2023-04-06T05:37:24.205Z,37.80
2023-04-06T05:39:51.157Z,37.80
2023-04-06T05:42:18.175Z,38.03
2023-04-06T05:44:45.364Z,35.40
2023-04-06T05:47:12.314Z,38.97
2023-04-06T05:49:39.520Z,39.93
2023-04-06T05:52:06.819Z,41.43
2023-04-06T05:54:34.115Z,40.33
2023-04-06T05:57:03.991Z,48.27
2023-04-06T05:59:33.858Z,41.43
2023-04-06T06:02:02.271Z,38.33
2023-04-06T06:04:29.321Z,45.93
2023-04-06T06:06:56.253Z,40.67
2023-04-06T06:09:23.271Z,39.70
2023-04-06T06:11:51.327Z,35.20
2023-04-06T06:14:18.339Z,32.80
2023-04-06T06:16:45.592Z,34.70
2023-04-06T06:19:12.683Z,29.90
2023-04-06T06:21:39.614Z,32.87
2023-04-06T06:24:08.300Z,34.43
2023-04-06T06:26:38.053Z,30.63
2023-04-06T06:29:06.597Z,32.13
2023-04-06T06:31:33.930Z,37.33
2023-04-06T06:34:01.085Z,24.20
2023-04-06T06:36:28.226Z,24.03
2023-04-06T06:38:55.241Z,21.60
2023-04-06T06:41:22.366Z,23.47
2023-04-06T06:43:49.319Z,21.67
2023-04-06T06:46:16.441Z,20.67
2023-04-06T06:48:43.593Z,25.77
2023-04-06T06:51:12.786Z,23.80
2023-04-06T06:53:39.726Z,20.23
2023-04-06T06:56:07.231Z,24.10
2023-04-06T06:58:34.192Z,22.20
2023-04-06T07:01:01.276Z,20.40
2023-04-06T07:03:28.346Z,18.13
2023-04-06T07:05:55.613Z,20.23
2023-04-06T07:08:24.884Z,18.20
2023-04-06T07:10:53.785Z,18.73
2023-04-06T07:13:25.112Z,17.00
2023-04-06T07:15:52.448Z,22.03
2023-04-06T07:18:20.788Z,22.57
2023-04-06T07:20:48.105Z,20.27
2023-04-06T07:23:15.300Z,22.63
2023-04-06T07:25:43.006Z,25.10
2023-04-06T07:28:10.001Z,22.57
2023-04-06T07:30:39.344Z,22.33
2023-04-06T07:33:06.795Z,23.77
2023-04-06T07:35:35.909Z,23.93
2023-04-06T07:38:03.500Z,24.47
2023-04-06T07:40:32.761Z,24.10
2023-04-06T07:43:00.109Z,23.13
2023-04-06T07:45:27.458Z,25.10
2023-04-06T07:47:54.420Z,21.97
2023-04-06T07:50:21.563Z,24.27
2023-04-06T07:52:48.639Z,23.80
2023-04-06T07:55:15.772Z,24.57
2023-04-06T07:57:42.742Z,22.80
2023-04-06T08:00:10.709Z,26.30
2023-04-06T08:02:37.859Z,27.37
2023-04-06T08:05:05.247Z,27.30
2023-04-06T08:07:32.364Z,23.13
2023-04-06T08:09:59.470Z,25.00
2023-04-06T08:12:26.492Z,24.73
2023-04-06T08:14:53.646Z,23.63
2023-04-06T08:17:20.731Z,28.07
2023-04-06T08:19:48.965Z,25.57
2023-04-06T08:22:15.958Z,26.80
2023-04-06T08:24:43.061Z,29.40
2023-04-06T08:27:10.229Z,23.80
2023-04-06T08:29:37.240Z,23.40
2023-04-06T08:32:06.112Z,25.87
2023-04-06T08:34:34.261Z,26.67
2023-04-06T08:37:01.534Z,25.43
2023-04-06T08:39:29.331Z,27.13
2023-04-06T08:42:01.095Z,24.03
2023-04-06T08:44:28.294Z,26.33
2023-04-06T08:46:56.159Z,23.90
2023-04-06T08:49:23.497Z,26.93
2023-04-06T08:51:51.992Z,24.43
2023-04-06T08:54:19.158Z,25.03
2023-04-06T08:56:47.189Z,22.50
2023-04-06T08:59:14.892Z,22.77
2023-04-06T09:01:43.973Z,25.53
2023-04-06T09:04:13.439Z,25.53
2023-04-06T09:06:42.093Z,25.83
2023-04-06T09:09:09.849Z,26.57
2023-04-06T09:11:51.673Z,26.23
2023-04-06T09:14:38.096Z,29.70
2023-04-06T09:17:06.009Z,25.57
2023-04-06T09:19:33.224Z,24.67
2023-04-06T09:22:10.290Z,25.07
2023-04-06T09:24:53.432Z,26.87
2023-04-06T09:27:36.813Z,24.33
2023-04-06T09:30:14.957Z,27.73
2023-04-06T09:32:50.821Z,28.90
2023-04-06T09:35:20.913Z,27.87
2023-04-06T09:37:50.697Z,26.73
2023-04-06T09:40:22.101Z,27.00
2023-04-06T09:42:53.510Z,30.23
2023-04-06T09:45:21.844Z,27.67
2023-04-06T09:47:49.505Z,28.37
2023-04-06T09:50:17.440Z,27.87
2023-04-06T09:52:51.019Z,29.27
2023-04-06T09:55:41.162Z,33.90
2023-04-06T09:58:11.694Z,28.97
2023-04-06T10:00:54.948Z,28.83
2023-04-06T10:03:32.794Z,30.80
2023-04-06T10:06:06.978Z,32.40
2023-04-06T10:08:36.664Z,31.50
2023-04-06T10:11:03.927Z,31.33
2023-04-06T10:13:31.056Z,28.77
2023-04-06T10:16:01.675Z,28.70
2023-04-06T10:18:29.456Z,26.73
2023-04-06T10:21:22.105Z,30.67
2023-04-06T10:24:03.544Z,29.33
2023-04-06T10:26:30.586Z,28.73
2023-04-06T10:29:05.194Z,30.13
2023-04-06T10:31:32.411Z,29.43
2023-04-06T10:34:03.994Z,27.30
2023-04-06T10:36:35.739Z,28.17
2023-04-06T10:39:06.038Z,24.40
2023-04-06T10:41:49.527Z,27.10
2023-04-06T10:44:23.149Z,26.03
2023-04-06T10:47:04.553Z,24.90
2023-04-06T10:49:31.505Z,21.00
2023-04-06T10:51:58.873Z,22.27
2023-04-06T10:54:27.437Z,19.87
2023-04-06T10:56:54.438Z,22.17
2023-04-06T10:59:23.085Z,21.20
2023-04-06T11:01:50.528Z,19.30
2023-04-06T11:04:22.064Z,18.97
2023-04-06T11:06:50.854Z,18.17
2023-04-06T11:09:32.609Z,20.00
2023-04-06T11:12:00.058Z,19.20
2023-04-06T11:14:27.593Z,20.30
2023-04-06T11:16:55.062Z,19.43
2023-04-06T11:19:22.178Z,18.50
2023-04-06T11:21:50.446Z,18.63
2023-04-06T11:24:20.524Z,17.93
2023-04-06T11:26:58.133Z,17.67
2023-04-06T11:29:33.963Z,18.57
2023-04-06T11:32:06.698Z,22.70
2023-04-06T11:34:39.690Z,20.40
2023-04-06T11:37:12.990Z,20.57
2023-04-06T11:39:54.953Z,21.10
2023-04-06T11:42:30.546Z,21.83
2023-04-06T11:45:01.344Z,20.90
2023-04-06T11:47:37.313Z,23.73
2023-04-06T11:50:15.357Z,25.77
2023-04-06T11:52:43.514Z,24.67
2023-04-06T11:55:16.289Z,23.93
2023-04-06T11:57:44.318Z,26.57
2023-04-06T12:00:13.359Z,22.60
2023-04-06T12:02:41.292Z,23.53
2023-04-06T12:05:09.464Z,25.13
2023-04-06T12:07:37.203Z,28.63
2023-04-06T12:10:06.058Z,25.40
2023-04-06T12:12:33.103Z,26.50
2023-04-06T12:15:00.860Z,25.40
2023-04-06T12:17:27.857Z,26.40
2023-04-06T12:19:55.814Z,30.47
2023-04-06T12:22:24.274Z,24.83
2023-04-06T12:24:51.240Z,26.97
2023-04-06T12:27:18.234Z,26.93
2023-04-06T12:29:45.575Z,24.20
2023-04-06T12:32:12.795Z,25.63
2023-04-06T12:34:39.949Z,25.57
2023-04-06T12:37:07.631Z,23.77
2023-04-06T12:39:34.564Z,24.87
2023-04-06T12:42:02.498Z,23.17
2023-04-06T12:44:30.118Z,21.93
2023-04-06T12:46:57.320Z,21.77
2023-04-06T12:49:25.381Z,23.77
2023-04-06T12:51:52.304Z,23.60
2023-04-06T12:54:19.246Z,23.60
2023-04-06T12:56:46.583Z,21.33
2023-04-06T12:59:13.613Z,26.27
2023-04-06T13:01:40.913Z,23.57
2023-04-06T13:04:07.859Z,25.90
2023-04-06T13:06:34.962Z,30.27
2023-04-06T13:09:02.098Z,31.07
2023-04-06T13:11:29.369Z,27.20
2023-04-06T13:13:56.436Z,28.83
2023-04-06T13:16:23.535Z,30.10
2023-04-06T13:18:51.282Z,31.10
2023-04-06T13:21:18.825Z,31.00
2023-04-06T13:23:46.118Z,36.70
2023-04-06T13:26:14.548Z,31.07
2023-04-06T13:28:42.405Z,30.57
2023-04-06T13:31:10.713Z,32.37
2023-04-06T13:33:38.021Z,32.13
2023-04-06T13:36:05.965Z,33.73
2023-04-06T13:38:34.548Z,31.87
2023-04-06T13:41:01.574Z,36.77
2023-04-06T13:43:28.624Z,37.13
2023-04-06T13:45:56.755Z,34.73
2023-04-06T13:48:23.914Z,33.50
2023-04-06T13:50:51.190Z,41.07
2023-04-06T13:53:18.355Z,31.60
2023-04-06T13:55:53.835Z,30.90
2023-04-06T13:58:20.822Z,30.67
2023-04-06T14:00:47.865Z,27.37
2023-04-06T14:03:14.996Z,28.37
2023-04-06T14:05:41.909Z,30.67
2023-04-06T14:08:08.870Z,31.63
2023-04-06T14:10:45.580Z,26.90
2023-04-06T14:13:12.846Z,27.93
2023-04-06T14:15:40.087Z,29.50
2023-04-06T14:18:07.150Z,25.67
2023-04-06T14:20:34.169Z,26.80
2023-04-06T14:23:02.878Z,25.53
2023-04-06T14:25:32.537Z,23.13
2023-04-06T14:27:59.580Z,27.63
2023-04-06T14:30:26.672Z,24.27
2023-04-06T14:32:53.686Z,27.17
2023-04-06T14:35:20.843Z,23.07
2023-04-06T14:37:48.308Z,19.17
2023-04-06T14:40:15.377Z,20.63
2023-04-06T14:42:42.532Z,20.17
2023-04-06T14:45:09.930Z,22.37
2023-04-06T14:47:36.910Z,20.57
2023-04-06T14:50:04.394Z,17.83
2023-04-06T14:52:32.829Z,19.53
2023-04-06T14:54:59.978Z,20.83
2023-04-06T14:57:26.975Z,18.03
2023-04-06T14:59:55.464Z,23.87
2023-04-06T15:02:22.580Z,25.47
2023-04-06T15:04:49.699Z,21.20
2023-04-06T15:07:16.700Z,18.23
2023-04-06T15:09:43.668Z,18.83
2023-04-06T15:12:10.721Z,22.27
2023-04-06T15:14:37.682Z,21.40
2023-04-06T15:17:04.661Z,17.43
2023-04-06T15:19:31.593Z,18.43
2023-04-06T15:22:00.812Z,19.40
2023-04-06T15:24:27.913Z,18.23
2023-04-06T15:26:54.853Z,14.70
2023-04-06T15:29:21.994Z,13.10
2023-04-06T15:31:48.941Z,22.73
2023-04-06T15:34:15.911Z,14.03
2023-04-06T15:36:44.538Z,13.83
2023-04-06T15:39:11.565Z,22.47
2023-04-06T15:41:38.754Z,19.40
2023-04-06T15:44:06.159Z,21.03
2023-04-06T15:46:33.314Z,18.23
2023-04-06T15:49:00.242Z,18.20
2023-04-06T15:51:27.565Z,28.77
2023-04-06T15:53:54.526Z,21.33
2023-04-06T15:56:21.479Z,17.67
2023-04-06T15:58:48.554Z,18.87
2023-04-06T16:01:18.207Z,21.43
2023-04-06T16:03:45.693Z,21.90
2023-04-06T16:06:13.285Z,19.50
2023-04-06T16:08:41.083Z,24.00
2023-04-06T16:11:08.751Z,20.63
2023-04-06T16:13:36.730Z,21.53
2023-04-06T16:16:05.556Z,18.37
2023-04-06T16:18:34.833Z,24.37
2023-04-06T16:21:03.780Z,22.17
2023-04-06T16:23:30.707Z,20.70
2023-04-06T16:26:00.712Z,22.60
2023-04-06T16:28:27.709Z,19.00
2023-04-06T16:30:54.634Z,25.57
2023-04-06T16:33:23.983Z,44.90
2023-04-06T16:35:51.196Z,24.47
2023-04-06T16:38:18.207Z,35.67
2023-04-06T16:40:45.132Z,25.20
2023-04-06T16:43:14.165Z,29.97
2023-04-06T16:45:41.352Z,29.40
2023-04-06T16:48:08.794Z,22.93
2023-04-06T16:50:36.596Z,21.53
2023-04-06T16:53:03.608Z,25.80
2023-04-06T16:55:30.701Z,22.90
2023-04-06T16:57:57.668Z,21.60
2023-04-06T17:00:24.928Z,29.50
2023-04-06T17:02:52.057Z,32.77
2023-04-06T17:05:24.995Z,24.03
2023-04-06T17:07:52.669Z,32.77
2023-04-06T17:10:28.640Z,24.53
2023-04-06T17:13:00.843Z,31.17
2023-04-06T17:15:29.481Z,25.00
2023-04-06T17:17:56.691Z,27.17
2023-04-06T17:20:23.730Z,30.43
2023-04-06T17:22:51.531Z,26.17
2023-04-06T17:25:18.799Z,20.07
2023-04-06T17:27:45.932Z,9.40
2023-04-06T17:30:15.561Z,7.00
2023-04-06T17:32:44.226Z,8.10
2023-04-06T17:35:11.862Z,9.13
2023-04-06T17:37:39.122Z,5.30
2023-04-06T17:40:07.597Z,5.17
2023-04-06T17:42:34.550Z,9.17
2023-04-06T17:45:01.638Z,11.50
2023-04-06T17:47:32.305Z,7.33
2023-04-06T17:50:01.446Z,6.40
2023-04-06T17:52:29.383Z,6.80
2023-04-06T17:54:56.638Z,8.27
2023-04-06T17:57:23.949Z,7.60
2023-04-06T17:59:51.099Z,8.23
2023-04-06T18:02:20.001Z,6.50
2023-04-06T18:04:47.341Z,12.37
2023-04-06T18:07:14.305Z,10.47
2023-04-06T18:09:41.896Z,8.60
2023-04-06T18:12:08.907Z,8.20
2023-04-06T18:14:35.859Z,9.63
2023-04-06T18:17:03.035Z,9.20
2023-04-06T18:19:32.236Z,12.03
2023-04-06T18:21:59.171Z,10.63
2023-04-06T18:24:40.416Z,31.73
2023-04-06T18:27:08.047Z,18.47
2023-04-06T18:29:36.146Z,13.57
2023-04-06T18:32:03.202Z,15.73
2023-04-06T18:34:30.185Z,14.17
2023-04-06T18:36:57.590Z,17.73
2023-04-06T18:39:24.630Z,19.70
2023-04-06T18:41:51.574Z,16.37
2023-04-06T18:44:18.840Z,24.60
2023-04-06T18:46:46.427Z,21.00
2023-04-06T18:49:13.461Z,23.10
2023-04-06T18:51:42.948Z,21.70
2023-04-06T18:54:09.952Z,33.53
2023-04-06T18:56:42.583Z,40.17
2023-04-06T18:59:10.659Z,32.40
2023-04-06T19:01:43.545Z,34.00
2023-04-06T19:04:11.861Z,29.93
2023-04-06T19:06:39.093Z,25.17
2023-04-06T19:09:08.511Z,27.90
2023-04-06T19:11:37.006Z,26.03
2023-04-06T19:14:04.065Z,34.17
2023-04-06T19:16:34.537Z,26.50
2023-04-06T19:19:01.436Z,28.43
2023-04-06T19:21:28.421Z,37.80
2023-04-06T19:23:56.169Z,38.20
2023-04-06T19:26:24.154Z,27.73
2023-04-06T19:28:51.459Z,29.07
2023-04-06T19:31:19.760Z,28.53
2023-04-06T19:33:47.830Z,28.90
2023-04-06T19:36:15.656Z,39.87
2023-04-06T19:38:42.673Z,24.63
2023-04-06T19:41:09.894Z,30.97
2023-04-06T19:43:36.916Z,32.50
2023-04-06T19:46:04.806Z,26.60
2023-04-06T19:48:33.851Z,43.23
2023-04-06T19:51:01.274Z,34.50
2023-04-06T19:53:28.273Z,48.83
2023-04-06T19:55:55.272Z,43.77
2023-04-06T19:58:22.417Z,48.57
2023-04-06T20:00:49.444Z,34.73
2023-04-06T20:03:16.546Z,21.97
2023-04-06T20:05:43.675Z,19.47
2023-04-06T20:08:10.825Z,22.77
2023-04-06T20:10:37.984Z,23.33
2023-04-06T20:13:04.934Z,22.87
2023-04-06T20:15:31.952Z,24.13
2023-04-06T20:17:58.945Z,24.93
2023-04-06T20:20:26.078Z,27.30
2023-04-06T20:22:52.988Z,21.00
2023-04-06T20:25:20.154Z,29.07
2023-04-06T20:27:47.098Z,23.97
2023-04-06T20:30:15.473Z,24.57
2023-04-06T20:32:42.936Z,24.10
2023-04-06T20:35:10.174Z,22.93
2023-04-06T20:37:42.652Z,16.70
2023-04-06T20:40:10.561Z,26.03
2023-04-06T20:42:37.651Z,20.00
2023-04-06T20:45:05.704Z,28.17
2023-04-06T20:47:32.931Z,21.30
2023-04-06T20:50:00.599Z,20.93
2023-04-06T20:52:27.787Z,25.37
2023-04-06T20:54:55.067Z,24.27
2023-04-06T20:57:23.072Z,19.83
2023-04-06T20:59:50.465Z,20.57
2023-04-06T21:02:18.259Z,17.93
2023-04-06T21:04:45.589Z,17.80
2023-04-06T21:07:12.757Z,16.73
2023-04-06T21:09:41.398Z,22.30
2023-04-06T21:12:08.715Z,18.27
2023-04-06T21:14:36.581Z,23.07
2023-04-06T21:17:04.156Z,24.33
2023-04-06T21:19:31.147Z,28.53
2023-04-06T21:21:58.227Z,19.73
2023-04-06T21:24:25.244Z,18.60
2023-04-06T21:26:52.361Z,20.37
2023-04-06T21:29:19.349Z,15.77
2023-04-06T21:31:46.310Z,14.30
2023-04-06T21:34:14.291Z,14.73
2023-04-06T21:36:42.256Z,19.33
2023-04-06T21:39:09.583Z,12.67
2023-04-06T21:41:36.890Z,11.90
2023-04-06T21:44:04.273Z,11.17
2023-04-06T21:46:31.265Z,7.73
2023-04-06T21:48:58.564Z,11.60
2023-04-06T21:51:25.944Z,8.07
2023-04-06T21:53:53.863Z,8.37
2023-04-06T21:56:22.988Z,9.90
2023-04-06T21:58:51.188Z,8.33
2023-04-06T22:01:19.339Z,9.30
2023-04-06T22:03:46.821Z,9.40
2023-04-06T22:06:14.072Z,6.80
2023-04-06T22:08:41.217Z,8.30
2023-04-06T22:11:11.239Z,9.50
2023-04-06T22:13:39.019Z,7.37
2023-04-06T22:16:06.996Z,9.20
2023-04-06T22:18:37.317Z,7.93
2023-04-06T22:21:05.853Z,10.40
2023-04-06T22:23:33.103Z,6.70
2023-04-06T22:26:00.574Z,6.97
2023-04-06T22:28:27.548Z,8.30
2023-04-06T22:30:54.623Z,6.30
2023-04-06T22:33:21.624Z,9.40
2023-04-06T22:35:48.727Z,7.07
2023-04-06T22:38:15.776Z,7.53
2023-04-06T22:40:42.752Z,8.07
2023-04-06T22:43:10.166Z,9.43
2023-04-06T22:45:37.348Z,12.13
2023-04-06T22:48:04.375Z,10.33
2023-04-06T22:50:31.724Z,9.77
2023-04-06T22:52:58.870Z,8.87
2023-04-06T22:55:26.100Z,12.73
2023-04-06T22:57:53.077Z,11.27
2023-04-06T23:00:20.428Z,9.97
2023-04-06T23:02:47.604Z,10.37
2023-04-06T23:05:14.744Z,14.23
2023-04-06T23:07:41.758Z,13.97
2023-04-06T23:10:09.564Z,12.63
2023-04-06T23:12:36.536Z,9.83
2023-04-06T23:15:03.695Z,13.13
2023-04-06T23:17:30.767Z,15.83
2023-04-06T23:19:57.789Z,10.83
2023-04-06T23:22:24.800Z,13.80
2023-04-06T23:24:51.839Z,13.17
2023-04-06T23:27:19.133Z,11.90
2023-04-06T23:29:46.427Z,13.20
2023-04-06T23:32:13.548Z,13.20
2023-04-06T23:34:40.966Z,12.70
2023-04-06T23:37:07.900Z,9.93
2023-04-06T23:39:36.390Z,8.57
2023-04-06T23:42:03.637Z,10.40
2023-04-06T23:44:30.962Z,10.43
2023-04-06T23:46:58.287Z,10.43
2023-04-06T23:49:26.563Z,11.40
2023-04-06T23:51:53.577Z,11.00
2023-04-06T23:54:20.600Z,10.07
2023-04-06T23:56:47.653Z,8.50
2023-04-06T23:59:14.654Z,9.40
